sensor_id;sensor_type;location;lat;lon;timestamp;P1;durP1;ratioP1;P2;durP2;ratioP2
46084;SDS011;31823;47.032;8.310;2023-07-13T00:01:47;6.30;;;3.42;;
46084;SDS011;31823;47.032;8.310;2023-07-13T00:04:15;6.72;;;3.65;;
46084;SDS011;31823;47.032;8.310;2023-07-13T00:06:42;7.22;;;3.63;;
46084;SDS011;31823;47.032;8.310;2023-07-13T00:09:09;6.75;;;4.15;;
46084;SDS011;31823;47.032;8.310;2023-07-13T00:11:42;5.82;;;3.90;;
46084;SDS011;31823;47.032;8.310;2023-07-13T00:14:08;6.07;;;3.85;;
46084;SDS011;31823;47.032;8.310;2023-07-13T00:16:35;6.10;;;4.00;;
46084;SDS011;31823;47.032;8.310;2023-07-13T00:19:02;6.05;;;3.40;;
46084;SDS011;31823;47.032;8.310;2023-07-13T00:21:27;4.85;;;3.65;;
46084;SDS011;31823;47.032;8.310;2023-07-13T00:23:53;4.85;;;3.80;;
46084;SDS011;31823;47.032;8.310;2023-07-13T00:26:19;4.90;;;3.60;;
46084;SDS011;31823;47.032;8.310;2023-07-13T00:28:44;5.50;;;3.85;;
46084;SDS011;31823;47.032;8.310;2023-07-13T00:31:10;6.78;;;3.63;;
46084;SDS011;31823;47.032;8.310;2023-07-13T00:33:39;6.70;;;3.30;;
46084;SDS011;31823;47.032;8.310;2023-07-13T00:36:05;6.03;;;3.83;;
46084;SDS011;31823;47.032;8.310;2023-07-13T00:38:31;4.60;;;3.25;;
46084;SDS011;31823;47.032;8.310;2023-07-13T00:40:56;5.90;;;3.50;;
46084;SDS011;31823;47.032;8.310;2023-07-13T00:43:23;4.57;;;3.50;;
46084;SDS011;31823;47.032;8.310;2023-07-13T00:48:20;5.75;;;3.75;;
46084;SDS011;31823;47.032;8.310;2023-07-13T00:50:50;6.28;;;3.80;;
46084;SDS011;31823;47.032;8.310;2023-07-13T00:53:19;4.82;;;4.07;;
46084;SDS011;31823;47.032;8.310;2023-07-13T00:55:46;5.32;;;3.25;;
46084;SDS011;31823;47.032;8.310;2023-07-13T00:58:13;7.88;;;3.38;;
46084;SDS011;31823;47.032;8.310;2023-07-13T01:00:39;5.22;;;3.50;;
46084;SDS011;31823;47.032;8.310;2023-07-13T01:03:05;4.60;;;3.08;;
46084;SDS011;31823;47.032;8.310;2023-07-13T01:05:32;6.65;;;3.25;;
46084;SDS011;31823;47.032;8.310;2023-07-13T01:07:59;6.07;;;4.10;;
46084;SDS011;31823;47.032;8.310;2023-07-13T01:10:25;4.60;;;3.90;;
46084;SDS011;31823;47.032;8.310;2023-07-13T01:12:51;3.67;;;2.95;;
46084;SDS011;31823;47.032;8.310;2023-07-13T01:15:36;4.82;;;3.40;;
46084;SDS011;31823;47.032;8.310;2023-07-13T01:18:11;4.13;;;3.20;;
46084;SDS011;31823;47.032;8.310;2023-07-13T01:20:40;5.18;;;3.20;;
46084;SDS011;31823;47.032;8.310;2023-07-13T01:23:07;5.15;;;3.45;;
46084;SDS011;31823;47.032;8.310;2023-07-13T01:25:34;3.97;;;3.13;;
46084;SDS011;31823;47.032;8.310;2023-07-13T01:28:01;11.43;;;5.13;;
46084;SDS011;31823;47.032;8.310;2023-07-13T01:30:28;4.72;;;3.20;;
46084;SDS011;31823;47.032;8.310;2023-07-13T01:32:53;5.00;;;3.10;;
46084;SDS011;31823;47.032;8.310;2023-07-13T01:35:19;5.05;;;3.20;;
46084;SDS011;31823;47.032;8.310;2023-07-13T01:37:45;9.73;;;4.10;;
46084;SDS011;31823;47.032;8.310;2023-07-13T01:40:11;5.30;;;3.78;;
46084;SDS011;31823;47.032;8.310;2023-07-13T01:42:37;5.07;;;4.03;;
46084;SDS011;31823;47.032;8.310;2023-07-13T01:45:03;12.25;;;4.68;;
46084;SDS011;31823;47.032;8.310;2023-07-13T01:47:29;8.02;;;4.05;;
46084;SDS011;31823;47.032;8.310;2023-07-13T01:49:55;4.07;;;3.65;;
46084;SDS011;31823;47.032;8.310;2023-07-13T01:52:21;5.97;;;3.63;;
46084;SDS011;31823;47.032;8.310;2023-07-13T01:54:47;6.82;;;3.70;;
46084;SDS011;31823;47.032;8.310;2023-07-13T01:57:12;4.25;;;3.25;;
46084;SDS011;31823;47.032;8.310;2023-07-13T01:59:38;10.80;;;4.78;;
46084;SDS011;31823;47.032;8.310;2023-07-13T02:02:04;6.63;;;3.70;;
46084;SDS011;31823;47.032;8.310;2023-07-13T02:04:29;6.47;;;4.35;;
46084;SDS011;31823;47.032;8.310;2023-07-13T02:06:55;6.38;;;3.97;;
46084;SDS011;31823;47.032;8.310;2023-07-13T02:09:20;5.45;;;3.60;;
46084;SDS011;31823;47.032;8.310;2023-07-13T02:11:46;5.95;;;4.05;;
46084;SDS011;31823;47.032;8.310;2023-07-13T02:14:13;5.30;;;3.95;;
46084;SDS011;31823;47.032;8.310;2023-07-13T02:16:40;5.90;;;4.30;;
46084;SDS011;31823;47.032;8.310;2023-07-13T02:19:06;6.90;;;4.38;;
46084;SDS011;31823;47.032;8.310;2023-07-13T02:21:32;5.53;;;3.85;;
46084;SDS011;31823;47.032;8.310;2023-07-13T02:23:58;7.18;;;3.88;;
46084;SDS011;31823;47.032;8.310;2023-07-13T02:26:24;4.85;;;3.97;;
46084;SDS011;31823;47.032;8.310;2023-07-13T02:28:50;7.22;;;4.05;;
46084;SDS011;31823;47.032;8.310;2023-07-13T02:31:16;5.03;;;3.47;;
46084;SDS011;31823;47.032;8.310;2023-07-13T02:33:42;4.95;;;3.67;;
46084;SDS011;31823;47.032;8.310;2023-07-13T02:36:08;6.07;;;4.18;;
46084;SDS011;31823;47.032;8.310;2023-07-13T02:38:34;6.22;;;4.30;;
46084;SDS011;31823;47.032;8.310;2023-07-13T02:41:01;5.63;;;4.53;;
46084;SDS011;31823;47.032;8.310;2023-07-13T02:43:27;5.95;;;3.95;;
46084;SDS011;31823;47.032;8.310;2023-07-13T02:45:53;5.38;;;4.30;;
46084;SDS011;31823;47.032;8.310;2023-07-13T02:48:19;6.40;;;3.55;;
46084;SDS011;31823;47.032;8.310;2023-07-13T02:50:44;4.75;;;3.60;;
46084;SDS011;31823;47.032;8.310;2023-07-13T02:53:10;4.25;;;3.42;;
46084;SDS011;31823;47.032;8.310;2023-07-13T02:55:36;6.28;;;4.15;;
46084;SDS011;31823;47.032;8.310;2023-07-13T02:58:01;6.07;;;3.75;;
46084;SDS011;31823;47.032;8.310;2023-07-13T03:00:27;6.18;;;4.25;;
46084;SDS011;31823;47.032;8.310;2023-07-13T03:02:53;6.50;;;3.72;;
46084;SDS011;31823;47.032;8.310;2023-07-13T03:05:22;5.15;;;3.55;;
46084;SDS011;31823;47.032;8.310;2023-07-13T03:07:48;7.88;;;3.90;;
46084;SDS011;31823;47.032;8.310;2023-07-13T03:10:13;6.75;;;3.72;;
46084;SDS011;31823;47.032;8.310;2023-07-13T03:12:39;9.20;;;3.50;;
46084;SDS011;31823;47.032;8.310;2023-07-13T03:15:05;3.65;;;3.00;;
46084;SDS011;31823;47.032;8.310;2023-07-13T03:17:31;5.50;;;3.70;;
46084;SDS011;31823;47.032;8.310;2023-07-13T03:19:56;4.47;;;2.97;;
46084;SDS011;31823;47.032;8.310;2023-07-13T03:22:22;4.88;;;2.88;;
46084;SDS011;31823;47.032;8.310;2023-07-13T03:24:48;4.78;;;3.10;;
46084;SDS011;31823;47.032;8.310;2023-07-13T03:27:14;4.90;;;3.15;;
46084;SDS011;31823;47.032;8.310;2023-07-13T03:29:42;5.43;;;3.33;;
46084;SDS011;31823;47.032;8.310;2023-07-13T03:32:08;3.83;;;3.03;;
46084;SDS011;31823;47.032;8.310;2023-07-13T03:34:34;5.13;;;3.58;;
46084;SDS011;31823;47.032;8.310;2023-07-13T03:37:00;4.35;;;3.28;;
46084;SDS011;31823;47.032;8.310;2023-07-13T03:39:25;5.47;;;3.70;;
46084;SDS011;31823;47.032;8.310;2023-07-13T03:41:51;5.40;;;3.70;;
46084;SDS011;31823;47.032;8.310;2023-07-13T03:44:17;4.95;;;3.45;;
46084;SDS011;31823;47.032;8.310;2023-07-13T03:46:43;4.55;;;3.15;;
46084;SDS011;31823;47.032;8.310;2023-07-13T03:49:09;3.88;;;3.00;;
46084;SDS011;31823;47.032;8.310;2023-07-13T03:51:35;3.70;;;3.05;;
46084;SDS011;31823;47.032;8.310;2023-07-13T03:54:01;4.57;;;3.20;;
46084;SDS011;31823;47.032;8.310;2023-07-13T03:56:28;5.65;;;2.92;;
46084;SDS011;31823;47.032;8.310;2023-07-13T03:58:55;7.70;;;2.92;;
46084;SDS011;31823;47.032;8.310;2023-07-13T04:01:21;4.70;;;3.08;;
46084;SDS011;31823;47.032;8.310;2023-07-13T04:03:49;2.90;;;2.60;;
46084;SDS011;31823;47.032;8.310;2023-07-13T04:06:36;6.18;;;3.30;;
46084;SDS011;31823;47.032;8.310;2023-07-13T04:09:02;4.93;;;2.90;;
46084;SDS011;31823;47.032;8.310;2023-07-13T04:11:30;3.72;;;2.35;;
46084;SDS011;31823;47.032;8.310;2023-07-13T04:13:57;3.80;;;3.10;;
46084;SDS011;31823;47.032;8.310;2023-07-13T04:16:23;6.22;;;3.40;;
46084;SDS011;31823;47.032;8.310;2023-07-13T04:18:49;3.88;;;3.20;;
46084;SDS011;31823;47.032;8.310;2023-07-13T04:21:16;5.35;;;3.58;;
46084;SDS011;31823;47.032;8.310;2023-07-13T04:23:42;8.82;;;3.33;;
46084;SDS011;31823;47.032;8.310;2023-07-13T04:26:08;7.32;;;3.47;;
46084;SDS011;31823;47.032;8.310;2023-07-13T04:28:34;5.97;;;4.18;;
46084;SDS011;31823;47.032;8.310;2023-07-13T04:31:00;4.22;;;3.28;;
46084;SDS011;31823;47.032;8.310;2023-07-13T04:33:26;3.92;;;3.50;;
46084;SDS011;31823;47.032;8.310;2023-07-13T04:35:53;3.75;;;3.15;;
46084;SDS011;31823;47.032;8.310;2023-07-13T04:38:22;7.05;;;3.20;;
46084;SDS011;31823;47.032;8.310;2023-07-13T04:40:49;4.50;;;3.55;;
46084;SDS011;31823;47.032;8.310;2023-07-13T04:43:15;5.80;;;3.50;;
46084;SDS011;31823;47.032;8.310;2023-07-13T04:45:41;5.75;;;3.15;;
46084;SDS011;31823;47.032;8.310;2023-07-13T04:48:07;4.38;;;3.13;;
46084;SDS011;31823;47.032;8.310;2023-07-13T04:50:32;5.15;;;3.25;;
46084;SDS011;31823;47.032;8.310;2023-07-13T04:53:00;4.20;;;3.22;;
46084;SDS011;31823;47.032;8.310;2023-07-13T04:55:26;6.75;;;3.67;;
46084;SDS011;31823;47.032;8.310;2023-07-13T04:57:54;5.43;;;3.60;;
46084;SDS011;31823;47.032;8.310;2023-07-13T05:00:20;5.50;;;4.10;;
46084;SDS011;31823;47.032;8.310;2023-07-13T05:02:46;5.80;;;4.07;;
46084;SDS011;31823;47.032;8.310;2023-07-13T05:05:11;6.72;;;4.57;;
46084;SDS011;31823;47.032;8.310;2023-07-13T05:07:37;6.57;;;3.60;;
46084;SDS011;31823;47.032;8.310;2023-07-13T05:10:03;6.85;;;5.13;;
46084;SDS011;31823;47.032;8.310;2023-07-13T05:12:29;7.50;;;4.13;;
46084;SDS011;31823;47.032;8.310;2023-07-13T05:14:55;6.57;;;4.10;;
46084;SDS011;31823;47.032;8.310;2023-07-13T05:17:21;7.57;;;4.65;;
46084;SDS011;31823;47.032;8.310;2023-07-13T05:19:46;5.28;;;4.45;;
46084;SDS011;31823;47.032;8.310;2023-07-13T05:22:12;5.85;;;3.67;;
46084;SDS011;31823;47.032;8.310;2023-07-13T05:24:37;5.32;;;4.07;;
46084;SDS011;31823;47.032;8.310;2023-07-13T05:27:03;6.25;;;4.18;;
46084;SDS011;31823;47.032;8.310;2023-07-13T05:29:29;8.25;;;4.00;;
46084;SDS011;31823;47.032;8.310;2023-07-13T05:31:54;7.97;;;4.45;;
46084;SDS011;31823;47.032;8.310;2023-07-13T05:34:20;7.47;;;3.80;;
46084;SDS011;31823;47.032;8.310;2023-07-13T05:36:46;5.65;;;3.95;;
46084;SDS011;31823;47.032;8.310;2023-07-13T05:39:11;5.22;;;4.13;;
46084;SDS011;31823;47.032;8.310;2023-07-13T05:41:37;4.80;;;3.90;;
46084;SDS011;31823;47.032;8.310;2023-07-13T05:44:02;8.23;;;4.90;;
46084;SDS011;31823;47.032;8.310;2023-07-13T05:46:28;8.05;;;4.22;;
46084;SDS011;31823;47.032;8.310;2023-07-13T05:48:54;8.52;;;4.10;;
46084;SDS011;31823;47.032;8.310;2023-07-13T05:51:19;4.75;;;3.63;;
46084;SDS011;31823;47.032;8.310;2023-07-13T05:53:45;4.90;;;3.63;;
46084;SDS011;31823;47.032;8.310;2023-07-13T05:56:10;5.80;;;3.83;;
46084;SDS011;31823;47.032;8.310;2023-07-13T05:58:36;6.47;;;4.82;;
46084;SDS011;31823;47.032;8.310;2023-07-13T06:01:06;7.47;;;5.78;;
46084;SDS011;31823;47.032;8.310;2023-07-13T06:03:36;6.20;;;5.32;;
46084;SDS011;31823;47.032;8.310;2023-07-13T06:06:04;5.60;;;4.30;;
46084;SDS011;31823;47.032;8.310;2023-07-13T06:08:31;9.90;;;4.93;;
46084;SDS011;31823;47.032;8.310;2023-07-13T06:13:40;7.07;;;5.10;;
46084;SDS011;31823;47.032;8.310;2023-07-13T06:16:06;5.13;;;4.15;;
46084;SDS011;31823;47.032;8.310;2023-07-13T06:18:35;5.95;;;5.05;;
46084;SDS011;31823;47.032;8.310;2023-07-13T06:21:09;7.55;;;4.60;;
46084;SDS011;31823;47.032;8.310;2023-07-13T06:23:37;8.82;;;4.97;;
46084;SDS011;31823;47.032;8.310;2023-07-13T06:26:03;5.72;;;3.92;;
46084;SDS011;31823;47.032;8.310;2023-07-13T06:28:31;6.00;;;4.60;;
46084;SDS011;31823;47.032;8.310;2023-07-13T06:31:00;10.13;;;4.22;;
46084;SDS011;31823;47.032;8.310;2023-07-13T06:33:26;5.60;;;4.10;;
46084;SDS011;31823;47.032;8.310;2023-07-13T06:35:52;5.45;;;4.32;;
46084;SDS011;31823;47.032;8.310;2023-07-13T06:38:19;5.53;;;4.07;;
46084;SDS011;31823;47.032;8.310;2023-07-13T06:40:45;6.60;;;3.95;;
46084;SDS011;31823;47.032;8.310;2023-07-13T06:43:11;4.93;;;3.72;;
46084;SDS011;31823;47.032;8.310;2023-07-13T06:45:44;6.57;;;4.13;;
46084;SDS011;31823;47.032;8.310;2023-07-13T06:48:12;6.82;;;4.13;;
46084;SDS011;31823;47.032;8.310;2023-07-13T06:50:38;7.18;;;3.95;;
46084;SDS011;31823;47.032;8.310;2023-07-13T06:53:03;7.60;;;4.18;;
46084;SDS011;31823;47.032;8.310;2023-07-13T06:55:29;5.03;;;4.07;;
46084;SDS011;31823;47.032;8.310;2023-07-13T06:57:54;5.25;;;3.58;;
46084;SDS011;31823;47.032;8.310;2023-07-13T07:00:20;7.72;;;4.03;;
46084;SDS011;31823;47.032;8.310;2023-07-13T07:02:46;5.50;;;4.22;;
46084;SDS011;31823;47.032;8.310;2023-07-13T07:05:11;6.47;;;4.00;;
46084;SDS011;31823;47.032;8.310;2023-07-13T07:07:37;4.72;;;3.53;;
46084;SDS011;31823;47.032;8.310;2023-07-13T07:10:02;5.97;;;3.83;;
46084;SDS011;31823;47.032;8.310;2023-07-13T07:12:28;4.70;;;3.70;;
46084;SDS011;31823;47.032;8.310;2023-07-13T07:14:54;4.13;;;3.53;;
46084;SDS011;31823;47.032;8.310;2023-07-13T07:17:20;5.95;;;3.90;;
46084;SDS011;31823;47.032;8.310;2023-07-13T07:19:45;5.55;;;3.67;;
46084;SDS011;31823;47.032;8.310;2023-07-13T07:22:11;8.82;;;4.47;;
46084;SDS011;31823;47.032;8.310;2023-07-13T07:24:36;9.30;;;4.65;;
46084;SDS011;31823;47.032;8.310;2023-07-13T07:27:02;6.88;;;4.10;;
46084;SDS011;31823;47.032;8.310;2023-07-13T07:29:28;9.50;;;4.20;;
46084;SDS011;31823;47.032;8.310;2023-07-13T07:31:53;6.85;;;4.55;;
46084;SDS011;31823;47.032;8.310;2023-07-13T07:34:19;7.85;;;4.30;;
46084;SDS011;31823;47.032;8.310;2023-07-13T07:36:45;5.40;;;4.10;;
46084;SDS011;31823;47.032;8.310;2023-07-13T07:39:10;5.93;;;3.88;;
46084;SDS011;31823;47.032;8.310;2023-07-13T07:41:36;5.60;;;4.00;;
46084;SDS011;31823;47.032;8.310;2023-07-13T07:44:02;7.28;;;3.97;;
46084;SDS011;31823;47.032;8.310;2023-07-13T07:46:28;6.00;;;4.35;;
46084;SDS011;31823;47.032;8.310;2023-07-13T07:48:55;5.47;;;4.07;;
46084;SDS011;31823;47.032;8.310;2023-07-13T07:51:21;6.97;;;4.63;;
46084;SDS011;31823;47.032;8.310;2023-07-13T07:53:47;5.55;;;4.10;;
46084;SDS011;31823;47.032;8.310;2023-07-13T07:56:13;5.22;;;4.05;;
46084;SDS011;31823;47.032;8.310;2023-07-13T07:58:41;6.22;;;5.47;;
46084;SDS011;31823;47.032;8.310;2023-07-13T08:01:07;5.13;;;3.97;;
46084;SDS011;31823;47.032;8.310;2023-07-13T08:03:33;5.05;;;3.88;;
46084;SDS011;31823;47.032;8.310;2023-07-13T08:05:59;4.32;;;3.92;;
46084;SDS011;31823;47.032;8.310;2023-07-13T08:08:25;6.60;;;3.90;;
46084;SDS011;31823;47.032;8.310;2023-07-13T08:10:50;5.93;;;4.35;;
46084;SDS011;31823;47.032;8.310;2023-07-13T08:13:16;6.57;;;4.13;;
46084;SDS011;31823;47.032;8.310;2023-07-13T08:15:42;7.82;;;3.35;;
46084;SDS011;31823;47.032;8.310;2023-07-13T08:18:07;2.95;;;2.53;;
46084;SDS011;31823;47.032;8.310;2023-07-13T08:20:36;4.97;;;3.40;;
46084;SDS011;31823;47.032;8.310;2023-07-13T08:23:02;4.35;;;2.90;;
46084;SDS011;31823;47.032;8.310;2023-07-13T08:25:28;3.33;;;2.08;;
46084;SDS011;31823;47.032;8.310;2023-07-13T08:27:54;4.70;;;2.63;;
46084;SDS011;31823;47.032;8.310;2023-07-13T08:30:19;4.40;;;2.50;;
46084;SDS011;31823;47.032;8.310;2023-07-13T08:32:45;4.82;;;2.60;;
46084;SDS011;31823;47.032;8.310;2023-07-13T08:35:10;3.58;;;2.40;;
46084;SDS011;31823;47.032;8.310;2023-07-13T08:37:36;4.05;;;2.95;;
46084;SDS011;31823;47.032;8.310;2023-07-13T08:40:02;3.30;;;2.05;;
46084;SDS011;31823;47.032;8.310;2023-07-13T08:42:34;3.70;;;2.35;;
46084;SDS011;31823;47.032;8.310;2023-07-13T08:45:03;2.53;;;2.03;;
46084;SDS011;31823;47.032;8.310;2023-07-13T08:47:53;2.10;;;1.80;;
46084;SDS011;31823;47.032;8.310;2023-07-13T08:50:27;4.47;;;2.33;;
46084;SDS011;31823;47.032;8.310;2023-07-13T08:53:04;2.72;;;2.38;;
46084;SDS011;31823;47.032;8.310;2023-07-13T08:55:31;3.33;;;2.60;;
46084;SDS011;31823;47.032;8.310;2023-07-13T08:58:03;3.25;;;2.30;;
46084;SDS011;31823;47.032;8.310;2023-07-13T09:00:48;4.32;;;2.50;;
46084;SDS011;31823;47.032;8.310;2023-07-13T09:06:46;3.05;;;2.10;;
46084;SDS011;31823;47.032;8.310;2023-07-13T09:12:19;3.67;;;3.00;;
46084;SDS011;31823;47.032;8.310;2023-07-13T09:14:48;4.82;;;2.00;;
46084;SDS011;31823;47.032;8.310;2023-07-13T09:17:30;3.17;;;2.38;;
46084;SDS011;31823;47.032;8.310;2023-07-13T09:20:31;3.65;;;2.70;;
46084;SDS011;31823;47.032;8.310;2023-07-13T09:23:04;3.25;;;2.33;;
46084;SDS011;31823;47.032;8.310;2023-07-13T09:25:36;3.90;;;2.25;;
46084;SDS011;31823;47.032;8.310;2023-07-13T09:28:05;3.22;;;2.53;;
46084;SDS011;31823;47.032;8.310;2023-07-13T09:30:46;3.70;;;2.65;;
46084;SDS011;31823;47.032;8.310;2023-07-13T09:33:20;4.20;;;2.80;;
46084;SDS011;31823;47.032;8.310;2023-07-13T09:35:47;3.67;;;3.00;;
46084;SDS011;31823;47.032;8.310;2023-07-13T09:38:15;3.78;;;2.50;;
46084;SDS011;31823;47.032;8.310;2023-07-13T09:43:21;2.78;;;2.45;;
46084;SDS011;31823;47.032;8.310;2023-07-13T09:45:47;3.50;;;2.95;;
46084;SDS011;31823;47.032;8.310;2023-07-13T09:48:13;3.58;;;2.50;;
46084;SDS011;31823;47.032;8.310;2023-07-13T09:50:40;3.30;;;2.90;;
46084;SDS011;31823;47.032;8.310;2023-07-13T09:53:11;3.20;;;2.47;;
46084;SDS011;31823;47.032;8.310;2023-07-13T09:55:39;3.92;;;2.83;;
46084;SDS011;31823;47.032;8.310;2023-07-13T10:00:39;3.67;;;2.88;;
46084;SDS011;31823;47.032;8.310;2023-07-13T10:03:14;3.55;;;2.80;;
46084;SDS011;31823;47.032;8.310;2023-07-13T10:05:47;3.28;;;2.88;;
46084;SDS011;31823;47.032;8.310;2023-07-13T10:08:25;4.13;;;2.45;;
46084;SDS011;31823;47.032;8.310;2023-07-13T10:10:59;3.50;;;2.63;;
46084;SDS011;31823;47.032;8.310;2023-07-13T10:16:01;2.85;;;2.55;;
46084;SDS011;31823;47.032;8.310;2023-07-13T10:18:38;3.17;;;2.30;;
46084;SDS011;31823;47.032;8.310;2023-07-13T10:21:15;2.72;;;2.17;;
46084;SDS011;31823;47.032;8.310;2023-07-13T10:23:44;3.58;;;2.08;;
46084;SDS011;31823;47.032;8.310;2023-07-13T10:26:17;2.88;;;2.28;;
46084;SDS011;31823;47.032;8.310;2023-07-13T10:28:47;2.88;;;2.00;;
46084;SDS011;31823;47.032;8.310;2023-07-13T10:31:17;3.10;;;1.88;;
46084;SDS011;31823;47.032;8.310;2023-07-13T10:33:44;2.42;;;2.22;;
46084;SDS011;31823;47.032;8.310;2023-07-13T10:36:15;2.30;;;1.75;;
46084;SDS011;31823;47.032;8.310;2023-07-13T10:38:42;2.30;;;2.10;;
46084;SDS011;31823;47.032;8.310;2023-07-13T10:41:29;2.53;;;2.08;;
46084;SDS011;31823;47.032;8.310;2023-07-13T10:43:58;4.00;;;2.22;;
46084;SDS011;31823;47.032;8.310;2023-07-13T10:46:26;1.75;;;1.30;;
46084;SDS011;31823;47.032;8.310;2023-07-13T10:48:55;1.90;;;1.70;;
46084;SDS011;31823;47.032;8.310;2023-07-13T10:51:27;3.00;;;1.80;;
46084;SDS011;31823;47.032;8.310;2023-07-13T10:54:10;2.00;;;1.80;;
46084;SDS011;31823;47.032;8.310;2023-07-13T10:56:43;2.47;;;1.80;;
46084;SDS011;31823;47.032;8.310;2023-07-13T10:59:17;2.45;;;2.20;;
46084;SDS011;31823;47.032;8.310;2023-07-13T11:01:53;3.30;;;1.92;;
46084;SDS011;31823;47.032;8.310;2023-07-13T11:04:22;1.80;;;1.60;;
46084;SDS011;31823;47.032;8.310;2023-07-13T11:06:50;2.92;;;1.35;;
46084;SDS011;31823;47.032;8.310;2023-07-13T11:14:43;5.15;;;2.30;;
46084;SDS011;31823;47.032;8.310;2023-07-13T11:17:51;3.92;;;1.90;;
46084;SDS011;31823;47.032;8.310;2023-07-13T11:25:38;2.42;;;2.03;;
46084;SDS011;31823;47.032;8.310;2023-07-13T11:30:40;2.72;;;2.05;;
46084;SDS011;31823;47.032;8.310;2023-07-13T11:38:42;2.72;;;2.00;;
46084;SDS011;31823;47.032;8.310;2023-07-13T11:41:32;4.25;;;2.30;;
46084;SDS011;31823;47.032;8.310;2023-07-13T11:44:02;2.63;;;2.08;;
46084;SDS011;31823;47.032;8.310;2023-07-13T11:46:37;3.22;;;1.83;;
46084;SDS011;31823;47.032;8.310;2023-07-13T11:49:05;2.92;;;1.95;;
46084;SDS011;31823;47.032;8.310;2023-07-13T11:51:32;2.50;;;2.10;;
46084;SDS011;31823;47.032;8.310;2023-07-13T11:54:05;2.38;;;1.98;;
46084;SDS011;31823;47.032;8.310;2023-07-13T11:56:38;2.67;;;2.17;;
46084;SDS011;31823;47.032;8.310;2023-07-13T11:59:05;2.65;;;1.90;;
46084;SDS011;31823;47.032;8.310;2023-07-13T12:01:32;2.40;;;2.20;;
46084;SDS011;31823;47.032;8.310;2023-07-13T12:04:03;1.80;;;1.70;;
46084;SDS011;31823;47.032;8.310;2023-07-13T12:06:32;3.38;;;2.05;;
46084;SDS011;31823;47.032;8.310;2023-07-13T12:09:01;2.45;;;1.90;;
46084;SDS011;31823;47.032;8.310;2023-07-13T12:11:40;2.60;;;2.03;;
46084;SDS011;31823;47.032;8.310;2023-07-13T12:14:12;2.05;;;1.80;;
46084;SDS011;31823;47.032;8.310;2023-07-13T12:16:40;3.30;;;1.88;;
46084;SDS011;31823;47.032;8.310;2023-07-13T12:19:09;2.63;;;2.00;;
46084;SDS011;31823;47.032;8.310;2023-07-13T12:21:47;1.90;;;1.55;;
46084;SDS011;31823;47.032;8.310;2023-07-13T12:24:15;1.90;;;1.70;;
46084;SDS011;31823;47.032;8.310;2023-07-13T12:26:43;2.55;;;1.60;;
46084;SDS011;31823;47.032;8.310;2023-07-13T12:29:15;3.75;;;2.00;;
46084;SDS011;31823;47.032;8.310;2023-07-13T12:31:43;1.75;;;1.60;;
46084;SDS011;31823;47.032;8.310;2023-07-13T12:34:13;1.42;;;1.33;;
46084;SDS011;31823;47.032;8.310;2023-07-13T12:36:47;2.28;;;1.58;;
46084;SDS011;31823;47.032;8.310;2023-07-13T12:41:41;3.17;;;1.63;;
46084;SDS011;31823;47.032;8.310;2023-07-13T12:44:12;1.73;;;1.45;;
46084;SDS011;31823;47.032;8.310;2023-07-13T12:46:50;4.50;;;1.35;;
46084;SDS011;31823;47.032;8.310;2023-07-13T12:49:18;1.85;;;1.20;;
46084;SDS011;31823;47.032;8.310;2023-07-13T12:51:50;1.83;;;1.10;;
46084;SDS011;31823;47.032;8.310;2023-07-13T12:54:17;1.58;;;1.48;;
46084;SDS011;31823;47.032;8.310;2023-07-13T12:56:44;1.40;;;1.30;;
46084;SDS011;31823;47.032;8.310;2023-07-13T12:59:18;1.70;;;1.60;;
46084;SDS011;31823;47.032;8.310;2023-07-13T13:01:46;1.50;;;1.25;;
46084;SDS011;31823;47.032;8.310;2023-07-13T13:04:14;2.85;;;1.60;;
46084;SDS011;31823;47.032;8.310;2023-07-13T13:06:40;1.45;;;1.20;;
46084;SDS011;31823;47.032;8.310;2023-07-13T13:09:09;1.52;;;1.40;;
46084;SDS011;31823;47.032;8.310;2023-07-13T13:11:41;3.22;;;1.40;;
46084;SDS011;31823;47.032;8.310;2023-07-13T13:14:07;1.15;;;1.08;;
46084;SDS011;31823;47.032;8.310;2023-07-13T13:16:34;2.00;;;1.15;;
46084;SDS011;31823;47.032;8.310;2023-07-13T13:19:16;1.55;;;1.08;;
46084;SDS011;31823;47.032;8.310;2023-07-13T13:21:44;2.10;;;0.93;;
46084;SDS011;31823;47.032;8.310;2023-07-13T13:24:14;2.80;;;1.33;;
46084;SDS011;31823;47.032;8.310;2023-07-13T13:26:43;1.30;;;1.10;;
46084;SDS011;31823;47.032;8.310;2023-07-13T13:29:11;1.77;;;1.38;;
46084;SDS011;31823;47.032;8.310;2023-07-13T13:31:41;1.23;;;1.13;;
46084;SDS011;31823;47.032;8.310;2023-07-13T13:34:08;2.38;;;1.20;;
46084;SDS011;31823;47.032;8.310;2023-07-13T13:36:35;1.75;;;1.10;;
46084;SDS011;31823;47.032;8.310;2023-07-13T13:39:01;3.50;;;0.82;;
46084;SDS011;31823;47.032;8.310;2023-07-13T13:41:27;0.88;;;0.85;;
46084;SDS011;31823;47.032;8.310;2023-07-13T13:43:53;2.40;;;1.15;;
46084;SDS011;31823;47.032;8.310;2023-07-13T13:46:19;2.83;;;1.15;;
46084;SDS011;31823;47.032;8.310;2023-07-13T13:48:50;3.55;;;2.17;;
46084;SDS011;31823;47.032;8.310;2023-07-13T13:51:17;0.98;;;0.98;;
46084;SDS011;31823;47.032;8.310;2023-07-13T13:53:44;1.48;;;1.10;;
46084;SDS011;31823;47.032;8.310;2023-07-13T13:56:11;1.00;;;0.90;;
46084;SDS011;31823;47.032;8.310;2023-07-13T13:58:37;1.58;;;1.48;;
46084;SDS011;31823;47.032;8.310;2023-07-13T14:01:03;2.20;;;1.50;;
46084;SDS011;31823;47.032;8.310;2023-07-13T14:03:33;1.45;;;1.23;;
46084;SDS011;31823;47.032;8.310;2023-07-13T14:05:58;1.38;;;1.02;;
46084;SDS011;31823;47.032;8.310;2023-07-13T14:08:24;1.15;;;1.05;;
46084;SDS011;31823;47.032;8.310;2023-07-13T14:10:51;1.30;;;1.10;;
46084;SDS011;31823;47.032;8.310;2023-07-13T14:16:10;1.20;;;1.10;;
46084;SDS011;31823;47.032;8.310;2023-07-13T14:18:37;1.40;;;1.30;;
46084;SDS011;31823;47.032;8.310;2023-07-13T14:21:04;1.58;;;1.13;;
46084;SDS011;31823;47.032;8.310;2023-07-13T14:23:49;2.60;;;1.27;;
46084;SDS011;31823;47.032;8.310;2023-07-13T14:26:19;1.30;;;1.20;;
46084;SDS011;31823;47.032;8.310;2023-07-13T14:28:50;1.67;;;1.50;;
46084;SDS011;31823;47.032;8.310;2023-07-13T14:31:17;1.50;;;1.25;;
46084;SDS011;31823;47.032;8.310;2023-07-13T14:33:44;2.78;;;1.77;;
46084;SDS011;31823;47.032;8.310;2023-07-13T14:36:24;0.93;;;0.93;;
46084;SDS011;31823;47.032;8.310;2023-07-13T14:38:50;1.55;;;1.45;;
46084;SDS011;31823;47.032;8.310;2023-07-13T14:41:16;3.47;;;1.15;;
46084;SDS011;31823;47.032;8.310;2023-07-13T14:43:41;2.10;;;1.10;;
46084;SDS011;31823;47.032;8.310;2023-07-13T14:46:08;3.63;;;1.10;;
46084;SDS011;31823;47.032;8.310;2023-07-13T14:48:47;1.17;;;1.00;;
46084;SDS011;31823;47.032;8.310;2023-07-13T14:51:13;6.72;;;2.70;;
46084;SDS011;31823;47.032;8.310;2023-07-13T14:53:39;8.02;;;1.52;;
46084;SDS011;31823;47.032;8.310;2023-07-13T14:56:11;1.08;;;0.93;;
46084;SDS011;31823;47.032;8.310;2023-07-13T14:58:37;1.23;;;1.13;;
46084;SDS011;31823;47.032;8.310;2023-07-13T15:01:07;1.30;;;1.20;;
46084;SDS011;31823;47.032;8.310;2023-07-13T15:03:44;2.35;;;1.20;;
46084;SDS011;31823;47.032;8.310;2023-07-13T15:06:11;3.35;;;1.17;;
46084;SDS011;31823;47.032;8.310;2023-07-13T15:08:38;2.88;;;1.00;;
46084;SDS011;31823;47.032;8.310;2023-07-13T15:11:05;2.75;;;1.38;;
46084;SDS011;31823;47.032;8.310;2023-07-13T15:13:37;1.73;;;1.20;;
46084;SDS011;31823;47.032;8.310;2023-07-13T15:16:03;2.42;;;1.00;;
46084;SDS011;31823;47.032;8.310;2023-07-13T15:18:34;1.85;;;1.20;;
46084;SDS011;31823;47.032;8.310;2023-07-13T15:21:02;1.38;;;1.23;;
46084;SDS011;31823;47.032;8.310;2023-07-13T15:23:29;1.38;;;1.27;;
46084;SDS011;31823;47.032;8.310;2023-07-13T15:25:54;1.23;;;1.13;;
46084;SDS011;31823;47.032;8.310;2023-07-13T15:28:20;1.48;;;1.38;;
46084;SDS011;31823;47.032;8.310;2023-07-13T15:30:46;1.40;;;1.30;;
46084;SDS011;31823;47.032;8.310;2023-07-13T15:33:15;1.10;;;1.10;;
46084;SDS011;31823;47.032;8.310;2023-07-13T15:35:51;2.53;;;1.40;;
46084;SDS011;31823;47.032;8.310;2023-07-13T15:38:19;2.20;;;1.40;;